sensor_id;sensor_type;location;lat;lon;timestamp;P1;durP1;ratioP1;P2;durP2;ratioP2
16662;SDS011;8445;51.270;9.434;2022-07-06T00:01:16;2.38;;;1.80;;
16662;SDS011;8445;51.270;9.434;2022-07-06T00:03:43;1.50;;;1.40;;
16662;SDS011;8445;51.270;9.434;2022-07-06T00:06:09;4.53;;;2.05;;
16662;SDS011;8445;51.270;9.434;2022-07-06T00:08:35;5.32;;;1.63;;
16662;SDS011;8445;51.270;9.434;2022-07-06T00:11:03;1.42;;;1.25;;
16662;SDS011;8445;51.270;9.434;2022-07-06T00:13:30;2.60;;;1.88;;
16662;SDS011;8445;51.270;9.434;2022-07-06T00:15:56;1.60;;;1.50;;
16662;SDS011;8445;51.270;9.434;2022-07-06T00:18:22;5.80;;;1.60;;
16662;SDS011;8445;51.270;9.434;2022-07-06T00:20:49;1.67;;;1.58;;
16662;SDS011;8445;51.270;9.434;2022-07-06T00:23:15;7.63;;;2.00;;
16662;SDS011;8445;51.270;9.434;2022-07-06T00:25:41;3.70;;;1.70;;
16662;SDS011;8445;51.270;9.434;2022-07-06T00:28:07;4.43;;;1.70;;
16662;SDS011;8445;51.270;9.434;2022-07-06T00:30:34;1.92;;;1.60;;
16662;SDS011;8445;51.270;9.434;2022-07-06T00:33:00;2.00;;;1.80;;
16662;SDS011;8445;51.270;9.434;2022-07-06T00:35:27;2.88;;;1.80;;
16662;SDS011;8445;51.270;9.434;2022-07-06T00:37:53;1.95;;;1.48;;
16662;SDS011;8445;51.270;9.434;2022-07-06T00:40:20;3.42;;;1.52;;
16662;SDS011;8445;51.270;9.434;2022-07-06T00:42:46;2.35;;;1.50;;
16662;SDS011;8445;51.270;9.434;2022-07-06T00:45:15;1.52;;;1.42;;
16662;SDS011;8445;51.270;9.434;2022-07-06T00:47:44;3.42;;;1.75;;
16662;SDS011;8445;51.270;9.434;2022-07-06T00:50:12;2.45;;;1.55;;
16662;SDS011;8445;51.270;9.434;2022-07-06T00:52:53;2.05;;;1.60;;
16662;SDS011;8445;51.270;9.434;2022-07-06T00:55:25;2.38;;;1.67;;
16662;SDS011;8445;51.270;9.434;2022-07-06T00:57:55;7.47;;;1.60;;
16662;SDS011;8445;51.270;9.434;2022-07-06T01:00:22;3.08;;;1.88;;
16662;SDS011;8445;51.270;9.434;2022-07-06T01:02:51;1.40;;;1.30;;
16662;SDS011;8445;51.270;9.434;2022-07-06T01:05:18;4.47;;;1.83;;
16662;SDS011;8445;51.270;9.434;2022-07-06T01:07:46;1.60;;;1.50;;
16662;SDS011;8445;51.270;9.434;2022-07-06T01:10:14;4.97;;;1.80;;
16662;SDS011;8445;51.270;9.434;2022-07-06T01:12:43;5.82;;;1.63;;
16662;SDS011;8445;51.270;9.434;2022-07-06T01:15:17;4.63;;;2.15;;
16662;SDS011;8445;51.270;9.434;2022-07-06T01:17:51;1.60;;;1.50;;
16662;SDS011;8445;51.270;9.434;2022-07-06T01:20:21;2.88;;;1.40;;
16662;SDS011;8445;51.270;9.434;2022-07-06T01:22:51;2.05;;;1.75;;
16662;SDS011;8445;51.270;9.434;2022-07-06T01:25:19;1.58;;;1.45;;
16662;SDS011;8445;51.270;9.434;2022-07-06T01:27:46;3.63;;;1.80;;
16662;SDS011;8445;51.270;9.434;2022-07-06T01:30:14;3.33;;;1.85;;
16662;SDS011;8445;51.270;9.434;2022-07-06T01:32:43;2.53;;;1.92;;
16662;SDS011;8445;51.270;9.434;2022-07-06T01:35:11;2.55;;;1.67;;
16662;SDS011;8445;51.270;9.434;2022-07-06T01:37:39;4.05;;;1.40;;
16662;SDS011;8445;51.270;9.434;2022-07-06T01:40:07;3.03;;;1.42;;
16662;SDS011;8445;51.270;9.434;2022-07-06T01:42:36;6.85;;;1.65;;
16662;SDS011;8445;51.270;9.434;2022-07-06T01:45:04;3.85;;;2.03;;
16662;SDS011;8445;51.270;9.434;2022-07-06T01:47:31;5.00;;;1.50;;
16662;SDS011;8445;51.270;9.434;2022-07-06T01:50:02;2.50;;;1.60;;
16662;SDS011;8445;51.270;9.434;2022-07-06T01:52:37;4.85;;;1.75;;
16662;SDS011;8445;51.270;9.434;2022-07-06T01:55:03;2.30;;;1.73;;
16662;SDS011;8445;51.270;9.434;2022-07-06T01:57:32;2.03;;;1.63;;
16662;SDS011;8445;51.270;9.434;2022-07-06T02:00:00;2.85;;;1.75;;
16662;SDS011;8445;51.270;9.434;2022-07-06T02:02:27;3.50;;;2.00;;
16662;SDS011;8445;51.270;9.434;2022-07-06T02:04:53;5.85;;;1.73;;
16662;SDS011;8445;51.270;9.434;2022-07-06T02:07:21;5.28;;;1.90;;
16662;SDS011;8445;51.270;9.434;2022-07-06T02:09:47;2.78;;;1.50;;
16662;SDS011;8445;51.270;9.434;2022-07-06T02:12:13;2.28;;;1.40;;
16662;SDS011;8445;51.270;9.434;2022-07-06T02:14:41;4.60;;;1.90;;
16662;SDS011;8445;51.270;9.434;2022-07-06T02:17:08;4.93;;;1.60;;
16662;SDS011;8445;51.270;9.434;2022-07-06T02:19:34;3.03;;;1.70;;
16662;SDS011;8445;51.270;9.434;2022-07-06T02:22:00;4.75;;;1.58;;
16662;SDS011;8445;51.270;9.434;2022-07-06T02:24:26;6.15;;;1.90;;
16662;SDS011;8445;51.270;9.434;2022-07-06T02:26:53;2.47;;;1.90;;
16662;SDS011;8445;51.270;9.434;2022-07-06T02:29:19;3.92;;;2.20;;
16662;SDS011;8445;51.270;9.434;2022-07-06T02:31:46;3.58;;;1.70;;
16662;SDS011;8445;51.270;9.434;2022-07-06T02:34:12;5.88;;;1.73;;
16662;SDS011;8445;51.270;9.434;2022-07-06T02:36:39;10.25;;;1.63;;
16662;SDS011;8445;51.270;9.434;2022-07-06T02:39:08;2.78;;;1.48;;
16662;SDS011;8445;51.270;9.434;2022-07-06T02:41:34;4.85;;;1.80;;
16662;SDS011;8445;51.270;9.434;2022-07-06T02:44:01;2.08;;;1.88;;
16662;SDS011;8445;51.270;9.434;2022-07-06T02:46:29;1.83;;;1.38;;
16662;SDS011;8445;51.270;9.434;2022-07-06T02:48:58;5.53;;;1.60;;
16662;SDS011;8445;51.270;9.434;2022-07-06T02:51:24;2.25;;;1.20;;
16662;SDS011;8445;51.270;9.434;2022-07-06T02:53:54;2.95;;;1.60;;
16662;SDS011;8445;51.270;9.434;2022-07-06T02:56:20;4.22;;;1.88;;
16662;SDS011;8445;51.270;9.434;2022-07-06T02:58:46;4.15;;;1.38;;
16662;SDS011;8445;51.270;9.434;2022-07-06T03:01:13;1.67;;;1.42;;
16662;SDS011;8445;51.270;9.434;2022-07-06T03:03:42;2.78;;;1.23;;
16662;SDS011;8445;51.270;9.434;2022-07-06T03:06:08;2.53;;;1.40;;
16662;SDS011;8445;51.270;9.434;2022-07-06T03:08:35;1.70;;;1.60;;
16662;SDS011;8445;51.270;9.434;2022-07-06T03:11:04;2.35;;;1.75;;
16662;SDS011;8445;51.270;9.434;2022-07-06T03:13:30;1.48;;;1.33;;
16662;SDS011;8445;51.270;9.434;2022-07-06T03:15:59;1.65;;;1.30;;
16662;SDS011;8445;51.270;9.434;2022-07-06T03:18:27;2.30;;;1.52;;
16662;SDS011;8445;51.270;9.434;2022-07-06T03:20:55;3.20;;;1.30;;
16662;SDS011;8445;51.270;9.434;2022-07-06T03:23:22;1.95;;;1.33;;
16662;SDS011;8445;51.270;9.434;2022-07-06T03:25:48;1.25;;;1.20;;
16662;SDS011;8445;51.270;9.434;2022-07-06T03:28:15;3.63;;;1.55;;
16662;SDS011;8445;51.270;9.434;2022-07-06T03:30:42;2.58;;;1.45;;
16662;SDS011;8445;51.270;9.434;2022-07-06T03:33:09;2.15;;;1.50;;
16662;SDS011;8445;51.270;9.434;2022-07-06T03:35:36;4.07;;;1.67;;
16662;SDS011;8445;51.270;9.434;2022-07-06T03:38:09;1.73;;;1.58;;
16662;SDS011;8445;51.270;9.434;2022-07-06T03:40:37;3.38;;;1.70;;
16662;SDS011;8445;51.270;9.434;2022-07-06T03:43:03;1.33;;;1.25;;
16662;SDS011;8445;51.270;9.434;2022-07-06T03:45:33;4.65;;;1.50;;
16662;SDS011;8445;51.270;9.434;2022-07-06T03:48:00;1.55;;;1.30;;
16662;SDS011;8445;51.270;9.434;2022-07-06T03:50:30;6.03;;;1.50;;
16662;SDS011;8445;51.270;9.434;2022-07-06T03:52:59;1.40;;;1.30;;
16662;SDS011;8445;51.270;9.434;2022-07-06T03:55:27;2.13;;;1.25;;
16662;SDS011;8445;51.270;9.434;2022-07-06T03:57:58;3.88;;;1.55;;
16662;SDS011;8445;51.270;9.434;2022-07-06T04:00:27;7.90;;;1.63;;
16662;SDS011;8445;51.270;9.434;2022-07-06T04:03:08;3.72;;;1.10;;
16662;SDS011;8445;51.270;9.434;2022-07-06T04:05:41;4.38;;;1.90;;
16662;SDS011;8445;51.270;9.434;2022-07-06T04:08:09;3.95;;;1.42;;
16662;SDS011;8445;51.270;9.434;2022-07-06T04:10:45;7.05;;;1.55;;
16662;SDS011;8445;51.270;9.434;2022-07-06T04:13:11;3.70;;;1.48;;
16662;SDS011;8445;51.270;9.434;2022-07-06T04:15:40;3.65;;;1.48;;
16662;SDS011;8445;51.270;9.434;2022-07-06T04:18:06;2.95;;;1.50;;
16662;SDS011;8445;51.270;9.434;2022-07-06T04:20:46;3.22;;;1.35;;
16662;SDS011;8445;51.270;9.434;2022-07-06T04:23:36;3.28;;;1.50;;
16662;SDS011;8445;51.270;9.434;2022-07-06T04:26:05;4.65;;;1.52;;
16662;SDS011;8445;51.270;9.434;2022-07-06T04:28:34;3.53;;;1.40;;
16662;SDS011;8445;51.270;9.434;2022-07-06T04:31:09;5.50;;;1.60;;
16662;SDS011;8445;51.270;9.434;2022-07-06T04:33:45;5.65;;;1.55;;
16662;SDS011;8445;51.270;9.434;2022-07-06T04:36:14;2.10;;;1.52;;
16662;SDS011;8445;51.270;9.434;2022-07-06T04:38:44;3.72;;;1.33;;
16662;SDS011;8445;51.270;9.434;2022-07-06T04:41:14;8.75;;;1.80;;
16662;SDS011;8445;51.270;9.434;2022-07-06T04:43:43;7.40;;;1.45;;
16662;SDS011;8445;51.270;9.434;2022-07-06T04:46:12;3.08;;;1.60;;
16662;SDS011;8445;51.270;9.434;2022-07-06T04:48:41;3.35;;;1.80;;
16662;SDS011;8445;51.270;9.434;2022-07-06T04:51:12;1.30;;;1.20;;
16662;SDS011;8445;51.270;9.434;2022-07-06T04:53:39;3.88;;;1.63;;
16662;SDS011;8445;51.270;9.434;2022-07-06T04:56:05;7.10;;;1.67;;
16662;SDS011;8445;51.270;9.434;2022-07-06T04:58:35;3.13;;;1.50;;
16662;SDS011;8445;51.270;9.434;2022-07-06T05:01:01;4.38;;;1.33;;
16662;SDS011;8445;51.270;9.434;2022-07-06T05:03:33;1.95;;;1.10;;
16662;SDS011;8445;51.270;9.434;2022-07-06T05:06:09;3.25;;;1.85;;
16662;SDS011;8445;51.270;9.434;2022-07-06T05:08:39;4.07;;;1.70;;
16662;SDS011;8445;51.270;9.434;2022-07-06T05:11:06;3.03;;;1.60;;
16662;SDS011;8445;51.270;9.434;2022-07-06T05:13:33;6.50;;;1.80;;
16662;SDS011;8445;51.270;9.434;2022-07-06T05:16:01;3.08;;;1.45;;
16662;SDS011;8445;51.270;9.434;2022-07-06T05:18:28;5.28;;;1.45;;
16662;SDS011;8445;51.270;9.434;2022-07-06T05:20:58;3.58;;;1.50;;
16662;SDS011;8445;51.270;9.434;2022-07-06T05:23:25;2.38;;;1.40;;
16662;SDS011;8445;51.270;9.434;2022-07-06T05:25:55;3.22;;;1.55;;
16662;SDS011;8445;51.270;9.434;2022-07-06T05:28:24;3.38;;;1.45;;
16662;SDS011;8445;51.270;9.434;2022-07-06T05:30:56;4.70;;;1.90;;
16662;SDS011;8445;51.270;9.434;2022-07-06T05:33:27;3.65;;;1.50;;
16662;SDS011;8445;51.270;9.434;2022-07-06T05:35:55;2.10;;;1.70;;
16662;SDS011;8445;51.270;9.434;2022-07-06T05:38:26;4.22;;;1.60;;
16662;SDS011;8445;51.270;9.434;2022-07-06T05:40:55;1.95;;;1.33;;
16662;SDS011;8445;51.270;9.434;2022-07-06T05:43:23;3.10;;;1.27;;
16662;SDS011;8445;51.270;9.434;2022-07-06T05:45:53;6.75;;;1.73;;
16662;SDS011;8445;51.270;9.434;2022-07-06T05:48:28;5.47;;;2.17;;
16662;SDS011;8445;51.270;9.434;2022-07-06T05:51:16;4.05;;;2.08;;
16662;SDS011;8445;51.270;9.434;2022-07-06T05:53:46;2.65;;;1.60;;
16662;SDS011;8445;51.270;9.434;2022-07-06T05:56:13;3.38;;;1.80;;
16662;SDS011;8445;51.270;9.434;2022-07-06T05:58:40;3.47;;;1.38;;
16662;SDS011;8445;51.270;9.434;2022-07-06T06:01:06;6.40;;;2.00;;
16662;SDS011;8445;51.270;9.434;2022-07-06T06:03:36;6.15;;;1.77;;
16662;SDS011;8445;51.270;9.434;2022-07-06T06:06:03;2.08;;;1.88;;
16662;SDS011;8445;51.270;9.434;2022-07-06T06:08:29;1.95;;;1.52;;
16662;SDS011;8445;51.270;9.434;2022-07-06T06:10:56;6.95;;;1.77;;
16662;SDS011;8445;51.270;9.434;2022-07-06T06:13:24;3.55;;;1.63;;
16662;SDS011;8445;51.270;9.434;2022-07-06T06:15:51;2.35;;;1.52;;
16662;SDS011;8445;51.270;9.434;2022-07-06T06:18:18;3.10;;;1.75;;
16662;SDS011;8445;51.270;9.434;2022-07-06T06:20:44;3.72;;;1.40;;
16662;SDS011;8445;51.270;9.434;2022-07-06T06:23:11;4.20;;;1.70;;
16662;SDS011;8445;51.270;9.434;2022-07-06T06:25:39;2.47;;;1.27;;
16662;SDS011;8445;51.270;9.434;2022-07-06T06:28:06;4.15;;;1.50;;
16662;SDS011;8445;51.270;9.434;2022-07-06T06:30:35;4.05;;;1.48;;
16662;SDS011;8445;51.270;9.434;2022-07-06T06:35:44;3.88;;;1.33;;
16662;SDS011;8445;51.270;9.434;2022-07-06T06:38:15;1.80;;;1.23;;
16662;SDS011;8445;51.270;9.434;2022-07-06T06:40:43;1.88;;;1.15;;
16662;SDS011;8445;51.270;9.434;2022-07-06T06:43:09;1.58;;;0.90;;
16662;SDS011;8445;51.270;9.434;2022-07-06T06:45:44;5.18;;;1.38;;
16662;SDS011;8445;51.270;9.434;2022-07-06T06:48:11;3.90;;;1.48;;
16662;SDS011;8445;51.270;9.434;2022-07-06T06:50:37;2.40;;;1.20;;
16662;SDS011;8445;51.270;9.434;2022-07-06T06:53:04;3.08;;;1.13;;
16662;SDS011;8445;51.270;9.434;2022-07-06T06:55:30;1.75;;;1.00;;
16662;SDS011;8445;51.270;9.434;2022-07-06T06:57:56;3.22;;;1.10;;
16662;SDS011;8445;51.270;9.434;2022-07-06T07:00:22;3.25;;;1.25;;
16662;SDS011;8445;51.270;9.434;2022-07-06T07:02:49;7.07;;;1.33;;
16662;SDS011;8445;51.270;9.434;2022-07-06T07:05:15;5.05;;;1.10;;
16662;SDS011;8445;51.270;9.434;2022-07-06T07:07:41;4.40;;;1.20;;
16662;SDS011;8445;51.270;9.434;2022-07-06T07:10:08;2.25;;;1.02;;
16662;SDS011;8445;51.270;9.434;2022-07-06T07:12:35;2.58;;;1.00;;
16662;SDS011;8445;51.270;9.434;2022-07-06T07:15:08;1.52;;;1.23;;
16662;SDS011;8445;51.270;9.434;2022-07-06T07:17:35;1.90;;;1.48;;
16662;SDS011;8445;51.270;9.434;2022-07-06T07:20:01;2.05;;;1.17;;
16662;SDS011;8445;51.270;9.434;2022-07-06T07:22:28;4.40;;;1.30;;
16662;SDS011;8445;51.270;9.434;2022-07-06T07:24:57;2.67;;;1.15;;
16662;SDS011;8445;51.270;9.434;2022-07-06T07:27:26;2.60;;;1.33;;
16662;SDS011;8445;51.270;9.434;2022-07-06T07:29:54;1.48;;;1.13;;
16662;SDS011;8445;51.270;9.434;2022-07-06T07:32:31;2.42;;;1.08;;
16662;SDS011;8445;51.270;9.434;2022-07-06T07:34:57;4.15;;;1.33;;
16662;SDS011;8445;51.270;9.434;2022-07-06T07:37:26;2.38;;;0.80;;
16662;SDS011;8445;51.270;9.434;2022-07-06T07:39:55;1.63;;;0.80;;
16662;SDS011;8445;51.270;9.434;2022-07-06T07:42:23;2.03;;;0.98;;
16662;SDS011;8445;51.270;9.434;2022-07-06T07:44:50;5.18;;;1.30;;
16662;SDS011;8445;51.270;9.434;2022-07-06T07:47:18;3.63;;;1.15;;
16662;SDS011;8445;51.270;9.434;2022-07-06T07:49:47;4.97;;;1.20;;
16662;SDS011;8445;51.270;9.434;2022-07-06T07:52:15;4.30;;;1.33;;
16662;SDS011;8445;51.270;9.434;2022-07-06T07:54:44;3.65;;;1.58;;
16662;SDS011;8445;51.270;9.434;2022-07-06T07:57:10;3.20;;;0.95;;
16662;SDS011;8445;51.270;9.434;2022-07-06T07:59:36;0.80;;;0.80;;
16662;SDS011;8445;51.270;9.434;2022-07-06T08:02:04;1.65;;;0.98;;
16662;SDS011;8445;51.270;9.434;2022-07-06T08:04:31;2.75;;;1.10;;
16662;SDS011;8445;51.270;9.434;2022-07-06T08:07:01;1.58;;;1.05;;
16662;SDS011;8445;51.270;9.434;2022-07-06T08:09:29;1.95;;;1.13;;
16662;SDS011;8445;51.270;9.434;2022-07-06T08:12:05;1.85;;;1.20;;
16662;SDS011;8445;51.270;9.434;2022-07-06T08:14:34;1.05;;;0.95;;
16662;SDS011;8445;51.270;9.434;2022-07-06T08:17:02;1.35;;;1.10;;
16662;SDS011;8445;51.270;9.434;2022-07-06T08:19:29;2.25;;;1.00;;
16662;SDS011;8445;51.270;9.434;2022-07-06T08:21:58;1.50;;;0.80;;
16662;SDS011;8445;51.270;9.434;2022-07-06T08:24:24;3.10;;;0.90;;
16662;SDS011;8445;51.270;9.434;2022-07-06T08:27:00;1.88;;;0.80;;
16662;SDS011;8445;51.270;9.434;2022-07-06T08:29:29;3.08;;;0.98;;
16662;SDS011;8445;51.270;9.434;2022-07-06T08:31:58;7.43;;;0.70;;
16662;SDS011;8445;51.270;9.434;2022-07-06T08:34:24;1.08;;;0.50;;
16662;SDS011;8445;51.270;9.434;2022-07-06T08:36:53;2.67;;;0.60;;
16662;SDS011;8445;51.270;9.434;2022-07-06T08:39:22;1.63;;;1.00;;
16662;SDS011;8445;51.270;9.434;2022-07-06T08:41:48;5.82;;;0.90;;
16662;SDS011;8445;51.270;9.434;2022-07-06T08:44:17;2.17;;;0.70;;
16662;SDS011;8445;51.270;9.434;2022-07-06T08:46:47;1.73;;;0.90;;
16662;SDS011;8445;51.270;9.434;2022-07-06T08:49:17;4.88;;;0.85;;
16662;SDS011;8445;51.270;9.434;2022-07-06T08:51:48;3.25;;;1.30;;
16662;SDS011;8445;51.270;9.434;2022-07-06T08:54:15;1.73;;;0.63;;
16662;SDS011;8445;51.270;9.434;2022-07-06T08:56:43;3.47;;;0.70;;
16662;SDS011;8445;51.270;9.434;2022-07-06T08:59:09;0.60;;;0.50;;
16662;SDS011;8445;51.270;9.434;2022-07-06T09:01:45;1.85;;;0.60;;
16662;SDS011;8445;51.270;9.434;2022-07-06T09:04:12;1.33;;;0.70;;
16662;SDS011;8445;51.270;9.434;2022-07-06T09:06:50;1.55;;;1.00;;
16662;SDS011;8445;51.270;9.434;2022-07-06T09:09:19;0.90;;;0.50;;
16662;SDS011;8445;51.270;9.434;2022-07-06T09:11:49;2.03;;;0.70;;
16662;SDS011;8445;51.270;9.434;2022-07-06T09:14:18;2.40;;;0.85;;
16662;SDS011;8445;51.270;9.434;2022-07-06T09:16:47;2.63;;;0.80;;
16662;SDS011;8445;51.270;9.434;2022-07-06T09:19:31;1.88;;;0.88;;
16662;SDS011;8445;51.270;9.434;2022-07-06T09:22:00;1.73;;;0.80;;
16662;SDS011;8445;51.270;9.434;2022-07-06T09:24:27;2.75;;;0.68;;
16662;SDS011;8445;51.270;9.434;2022-07-06T09:27:02;1.42;;;0.82;;
16662;SDS011;8445;51.270;9.434;2022-07-06T09:29:31;2.35;;;0.73;;
16662;SDS011;8445;51.270;9.434;2022-07-06T09:31:58;1.77;;;0.57;;
16662;SDS011;8445;51.270;9.434;2022-07-06T09:34:40;6.22;;;0.90;;
16662;SDS011;8445;51.270;9.434;2022-07-06T09:37:10;1.65;;;0.77;;
16662;SDS011;8445;51.270;9.434;2022-07-06T09:39:38;1.38;;;0.60;;
16662;SDS011;8445;51.270;9.434;2022-07-06T09:42:07;1.00;;;0.55;;
16662;SDS011;8445;51.270;9.434;2022-07-06T09:44:34;1.70;;;0.63;;
16662;SDS011;8445;51.270;9.434;2022-07-06T09:47:04;2.58;;;0.70;;
16662;SDS011;8445;51.270;9.434;2022-07-06T09:49:36;1.85;;;0.60;;
16662;SDS011;8445;51.270;9.434;2022-07-06T09:52:13;0.50;;;0.40;;
16662;SDS011;8445;51.270;9.434;2022-07-06T09:54:48;0.80;;;0.80;;
16662;SDS011;8445;51.270;9.434;2022-07-06T09:57:16;2.45;;;0.70;;
16662;SDS011;8445;51.270;9.434;2022-07-06T09:59:49;1.95;;;0.73;;
16662;SDS011;8445;51.270;9.434;2022-07-06T10:02:19;2.28;;;0.75;;
16662;SDS011;8445;51.270;9.434;2022-07-06T10:04:47;1.40;;;0.45;;
16662;SDS011;8445;51.270;9.434;2022-07-06T10:07:21;1.42;;;0.80;;
16662;SDS011;8445;51.270;9.434;2022-07-06T10:09:53;1.60;;;0.65;;
16662;SDS011;8445;51.270;9.434;2022-07-06T10:12:22;1.10;;;0.70;;
16662;SDS011;8445;51.270;9.434;2022-07-06T10:14:55;2.85;;;0.93;;
16662;SDS011;8445;51.270;9.434;2022-07-06T10:17:24;2.65;;;0.68;;
16662;SDS011;8445;51.270;9.434;2022-07-06T10:19:51;1.70;;;0.60;;
16662;SDS011;8445;51.270;9.434;2022-07-06T10:22:21;1.05;;;0.35;;
16662;SDS011;8445;51.270;9.434;2022-07-06T10:24:50;1.90;;;0.70;;
16662;SDS011;8445;51.270;9.434;2022-07-06T10:27:17;2.50;;;0.70;;
16662;SDS011;8445;51.270;9.434;2022-07-06T10:29:46;2.03;;;0.68;;
16662;SDS011;8445;51.270;9.434;2022-07-06T10:32:16;4.43;;;0.73;;
16662;SDS011;8445;51.270;9.434;2022-07-06T10:34:47;1.67;;;0.60;;
16662;SDS011;8445;51.270;9.434;2022-07-06T10:37:23;2.67;;;0.90;;
16662;SDS011;8445;51.270;9.434;2022-07-06T10:39:54;2.55;;;0.55;;
16662;SDS011;8445;51.270;9.434;2022-07-06T10:42:39;2.33;;;0.60;;
16662;SDS011;8445;51.270;9.434;2022-07-06T10:45:49;2.38;;;0.73;;
16662;SDS011;8445;51.270;9.434;2022-07-06T10:50:45;6.03;;;0.60;;
16662;SDS011;8445;51.270;9.434;2022-07-06T10:53:33;2.15;;;1.00;;
16662;SDS011;8445;51.270;9.434;2022-07-06T10:56:09;0.98;;;0.65;;
16662;SDS011;8445;51.270;9.434;2022-07-06T10:58:45;2.58;;;0.68;;
16662;SDS011;8445;51.270;9.434;2022-07-06T11:01:17;2.35;;;0.70;;
16662;SDS011;8445;51.270;9.434;2022-07-06T11:06:17;0.77;;;0.50;;
16662;SDS011;8445;51.270;9.434;2022-07-06T11:14:00;0.50;;;0.45;;
16662;SDS011;8445;51.270;9.434;2022-07-06T11:19:12;0.50;;;0.45;;
16662;SDS011;8445;51.270;9.434;2022-07-06T11:24:31;3.92;;;0.68;;
16662;SDS011;8445;51.270;9.434;2022-07-06T11:27:00;1.13;;;0.70;;
16662;SDS011;8445;51.270;9.434;2022-07-06T11:29:28;1.17;;;0.50;;
16662;SDS011;8445;51.270;9.434;2022-07-06T11:32:01;1.20;;;0.50;;
16662;SDS011;8445;51.270;9.434;2022-07-06T11:34:33;2.45;;;0.50;;
16662;SDS011;8445;51.270;9.434;2022-07-06T11:37:04;3.13;;;0.50;;
16662;SDS011;8445;51.270;9.434;2022-07-06T11:39:42;1.02;;;0.63;;
16662;SDS011;8445;51.270;9.434;2022-07-06T11:42:12;0.43;;;0.43;;
16662;SDS011;8445;51.270;9.434;2022-07-06T11:44:42;2.88;;;0.52;;
16662;SDS011;8445;51.270;9.434;2022-07-06T11:47:11;1.38;;;0.50;;
16662;SDS011;8445;51.270;9.434;2022-07-06T11:49:38;1.10;;;0.50;;
16662;SDS011;8445;51.270;9.434;2022-07-06T11:52:14;1.15;;;0.57;;
16662;SDS011;8445;51.270;9.434;2022-07-06T11:54:41;5.25;;;0.73;;
16662;SDS011;8445;51.270;9.434;2022-07-06T11:57:11;5.05;;;0.70;;
16662;SDS011;8445;51.270;9.434;2022-07-06T11:59:40;3.75;;;0.57;;
16662;SDS011;8445;51.270;9.434;2022-07-06T12:02:18;6.53;;;0.80;;
16662;SDS011;8445;51.270;9.434;2022-07-06T12:04:47;0.75;;;0.40;;
16662;SDS011;8445;51.270;9.434;2022-07-06T12:07:18;1.45;;;0.50;;
16662;SDS011;8445;51.270;9.434;2022-07-06T12:09:45;2.97;;;0.52;;
16662;SDS011;8445;51.270;9.434;2022-07-06T12:12:13;0.40;;;0.40;;
16662;SDS011;8445;51.270;9.434;2022-07-06T12:14:42;1.65;;;0.68;;
16662;SDS011;8445;51.270;9.434;2022-07-06T12:17:13;1.17;;;0.30;;
16662;SDS011;8445;51.270;9.434;2022-07-06T12:19:42;1.20;;;0.50;;
16662;SDS011;8445;51.270;9.434;2022-07-06T12:22:12;1.42;;;0.50;;
16662;SDS011;8445;51.270;9.434;2022-07-06T12:24:41;2.80;;;0.57;;
16662;SDS011;8445;51.270;9.434;2022-07-06T12:27:16;8.13;;;0.88;;
16662;SDS011;8445;51.270;9.434;2022-07-06T12:29:49;2.83;;;0.30;;
16662;SDS011;8445;51.270;9.434;2022-07-06T12:32:19;0.35;;;0.30;;
16662;SDS011;8445;51.270;9.434;2022-07-06T12:35:01;1.30;;;0.43;;
16662;SDS011;8445;51.270;9.434;2022-07-06T12:37:54;1.10;;;0.32;;
16662;SDS011;8445;51.270;9.434;2022-07-06T12:40:24;1.63;;;0.50;;
16662;SDS011;8445;51.270;9.434;2022-07-06T12:42:58;0.55;;;0.55;;
16662;SDS011;8445;51.270;9.434;2022-07-06T12:45:27;0.73;;;0.40;;
16662;SDS011;8445;51.270;9.434;2022-07-06T12:48:02;0.80;;;0.43;;
16662;SDS011;8445;51.270;9.434;2022-07-06T12:50:36;2.28;;;0.70;;
16662;SDS011;8445;51.270;9.434;2022-07-06T12:53:43;2.25;;;0.73;;
16662;SDS011;8445;51.270;9.434;2022-07-06T12:56:09;1.85;;;0.52;;
16662;SDS011;8445;51.270;9.434;2022-07-06T12:58:58;2.60;;;0.70;;
16662;SDS011;8445;51.270;9.434;2022-07-06T13:01:25;0.73;;;0.50;;
16662;SDS011;8445;51.270;9.434;2022-07-06T13:03:55;2.13;;;0.60;;
16662;SDS011;8445;51.270;9.434;2022-07-06T13:06:32;2.38;;;0.60;;
16662;SDS011;8445;51.270;9.434;2022-07-06T13:09:02;3.30;;;0.90;;
16662;SDS011;8445;51.270;9.434;2022-07-06T13:11:36;2.08;;;0.63;;
16662;SDS011;8445;51.270;9.434;2022-07-06T13:14:02;0.70;;;0.35;;
16662;SDS011;8445;51.270;9.434;2022-07-06T13:16:28;3.13;;;0.77;;
16662;SDS011;8445;51.270;9.434;2022-07-06T13:19:09;1.98;;;0.77;;
16662;SDS011;8445;51.270;9.434;2022-07-06T13:21:35;4.53;;;0.77;;
16662;SDS011;8445;51.270;9.434;2022-07-06T13:24:02;1.25;;;0.50;;
16662;SDS011;8445;51.270;9.434;2022-07-06T13:26:30;1.35;;;0.80;;
16662;SDS011;8445;51.270;9.434;2022-07-06T13:29:04;3.40;;;0.85;;
16662;SDS011;8445;51.270;9.434;2022-07-06T13:31:31;2.55;;;0.50;;
16662;SDS011;8445;51.270;9.434;2022-07-06T13:33:57;5.05;;;0.98;;
16662;SDS011;8445;51.270;9.434;2022-07-06T13:36:23;1.38;;;0.57;;
16662;SDS011;8445;51.270;9.434;2022-07-06T13:38:52;2.58;;;0.90;;
16662;SDS011;8445;51.270;9.434;2022-07-06T13:41:20;3.35;;;0.68;;
16662;SDS011;8445;51.270;9.434;2022-07-06T13:43:49;2.08;;;0.82;;
16662;SDS011;8445;51.270;9.434;2022-07-06T13:46:18;2.60;;;0.70;;
16662;SDS011;8445;51.270;9.434;2022-07-06T13:48:46;1.50;;;0.55;;
16662;SDS011;8445;51.270;9.434;2022-07-06T13:51:15;2.08;;;0.70;;
16662;SDS011;8445;51.270;9.434;2022-07-06T13:53:41;4.10;;;1.08;;
16662;SDS011;8445;51.270;9.434;2022-07-06T13:56:09;3.03;;;0.82;;
16662;SDS011;8445;51.270;9.434;2022-07-06T13:58:38;2.17;;;0.65;;
16662;SDS011;8445;51.270;9.434;2022-07-06T14:01:06;1.67;;;0.50;;
16662;SDS011;8445;51.270;9.434;2022-07-06T14:03:32;2.08;;;1.50;;
16662;SDS011;8445;51.270;9.434;2022-07-06T14:06:03;1.75;;;0.65;;
16662;SDS011;8445;51.270;9.434;2022-07-06T14:08:33;1.02;;;0.75;;
16662;SDS011;8445;51.270;9.434;2022-07-06T14:11:05;2.30;;;0.70;;
16662;SDS011;8445;51.270;9.434;2022-07-06T14:13:35;1.17;;;0.40;;
16662;SDS011;8445;51.270;9.434;2022-07-06T14:16:04;2.38;;;0.80;;
16662;SDS011;8445;51.270;9.434;2022-07-06T14:18:33;5.28;;;0.85;;
16662;SDS011;8445;51.270;9.434;2022-07-06T14:21:01;1.15;;;0.82;;
16662;SDS011;8445;51.270;9.434;2022-07-06T14:23:28;2.85;;;0.80;;
16662;SDS011;8445;51.270;9.434;2022-07-06T14:25:57;2.60;;;1.02;;
16662;SDS011;8445;51.270;9.434;2022-07-06T14:28:24;2.15;;;0.60;;
16662;SDS011;8445;51.270;9.434;2022-07-06T14:30:50;0.70;;;0.70;;
16662;SDS011;8445;51.270;9.434;2022-07-06T14:33:16;2.67;;;0.80;;
16662;SDS011;8445;51.270;9.434;2022-07-06T14:35:52;2.67;;;0.80;;
16662;SDS011;8445;51.270;9.434;2022-07-06T14:38:21;3.33;;;0.70;;
16662;SDS011;8445;51.270;9.434;2022-07-06T14:40:48;1.13;;;0.57;;
16662;SDS011;8445;51.270;9.434;2022-07-06T14:43:22;2.20;;;0.63;;
16662;SDS011;8445;51.270;9.434;2022-07-06T14:45:50;3.38;;;0.70;;
16662;SDS011;8445;51.270;9.434;2022-07-06T14:48:19;4.45;;;0.90;;
16662;SDS011;8445;51.270;9.434;2022-07-06T14:50:45;1.30;;;0.40;;
16662;SDS011;8445;51.270;9.434;2022-07-06T14:53:11;2.53;;;0.50;;
16662;SDS011;8445;51.270;9.434;2022-07-06T14:55:37;0.65;;;0.50;;
16662;SDS011;8445;51.270;9.434;2022-07-06T14:58:03;3.05;;;0.68;;
16662;SDS011;8445;51.270;9.434;2022-07-06T15:00:29;3.60;;;0.50;;
16662;SDS011;8445;51.270;9.434;2022-07-06T15:02:55;2.80;;;0.60;;
16662;SDS011;8445;51.270;9.434;2022-07-06T15:05:22;1.25;;;0.77;;
16662;SDS011;8445;51.270;9.434;2022-07-06T15:07:48;1.20;;;0.38;;
16662;SDS011;8445;51.270;9.434;2022-07-06T15:10:14;0.88;;;0.73;;
16662;SDS011;8445;51.270;9.434;2022-07-06T15:12:40;1.63;;;0.55;;
16662;SDS011;8445;51.270;9.434;2022-07-06T15:15:07;0.63;;;0.63;;
16662;SDS011;8445;51.270;9.434;2022-07-06T15:17:33;1.98;;;0.63;;
16662;SDS011;8445;51.270;9.434;2022-07-06T15:19:59;5.95;;;0.60;;
16662;SDS011;8445;51.270;9.434;2022-07-06T15:22:26;1.90;;;0.73;;
16662;SDS011;8445;51.270;9.434;2022-07-06T15:24:52;3.45;;;0.70;;
16662;SDS011;8445;51.270;9.434;2022-07-06T15:27:22;0.73;;;0.60;;
16662;SDS011;8445;51.270;9.434;2022-07-06T15:29:48;2.25;;;0.73;;
16662;SDS011;8445;51.270;9.434;2022-07-06T15:32:14;1.88;;;0.80;;